Current | Forecast
Updated: 8:30 PM CEST on October 17, 2017
Observed at Vitoria, Spain
Temperature 20°C
Humidity 52%
Dew Point 10°C
Wind SSE at 6 km/h
Pressure 1016 hPa (Steady)
Conditions Scattered Clouds
Visibility 10.0 kilometers
UV 0 out of 16
Clouds (FEW) : 1219 m
Scattered Clouds (SCT) : 2133 m
Yesterday's Maximum 27°C
Yesterday's Minimum 14°C approx.
Yesterday's Cooling Degree Days 4 approx.
Sunrise8:25 AM CEST
Sunset7:24 PM CEST
Moon Rise5:43 AM CEST
Moon Set6:38 PM CEST
Moon PhaseMoon Phase
Waning Crescent
Raw METARMETAR LEVT 171830Z 16003KT 110V180 9999 FEW040 SCT070 20/10 Q1016


Monday
. High: 80° F.
Tuesday
. High: 87° F.
Wednesday
. High: 73° F.
Thursday
. High: 69° F.
Friday
. High: 82° F.
Saturday
. High: 75° F.
Sunday
. High: 73° F.
Monday
. High: 86° F.

Click here for Marine Information
Scientific forecaster discussion (NWS)

Units: English | Metric

Find the Weather for any City, State or Zipcode, or Country:

U.S. State List | Severe Weather | Tropical Storms | Ski Conditions
United States | Canada | Central America | South America | Asia | Europe | Australia | Africa | Islands

Weather Underground

© Copyright 2017
The Weather Company, LLC